sensor_id;sensor_type;location;lat;lon;timestamp;pressure;altitude;pressure_sealevel;temperature;humidity
24230;BME280;12362;50.004;8.006;2022-11-04T00:01:42;99477.44;;;11.80;100.00
24230;BME280;12362;50.004;8.006;2022-11-04T00:04:09;99474.22;;;11.77;100.00
24230;BME280;12362;50.004;8.006;2022-11-04T00:06:35;99480.44;;;11.75;100.00
24230;BME280;12362;50.004;8.006;2022-11-04T00:09:02;99490.03;;;11.74;100.00
24230;BME280;12362;50.004;8.006;2022-11-04T00:11:28;99490.22;;;11.71;100.00
24230;BME280;12362;50.004;8.006;2022-11-04T00:14:13;99492.09;;;11.69;100.00
24230;BME280;12362;50.004;8.006;2022-11-04T00:16:39;99482.84;;;11.65;100.00
24230;BME280;12362;50.004;8.006;2022-11-04T00:19:24;99479.59;;;11.62;100.00
24230;BME280;12362;50.004;8.006;2022-11-04T00:21:49;99482.50;;;11.57;100.00
24230;BME280;12362;50.004;8.006;2022-11-04T00:24:34;99494.97;;;11.52;100.00
24230;BME280;12362;50.004;8.006;2022-11-04T00:27:19;99483.22;;;11.47;100.00
24230;BME280;12362;50.004;8.006;2022-11-04T00:30:07;99473.75;;;11.46;100.00
24230;BME280;12362;50.004;8.006;2022-11-04T00:32:34;99478.84;;;11.47;100.00
24230;BME280;12362;50.004;8.006;2022-11-04T00:35:18;99484.22;;;11.44;100.00
24230;BME280;12362;50.004;8.006;2022-11-04T00:37:45;99484.34;;;11.43;100.00
24230;BME280;12362;50.004;8.006;2022-11-04T00:40:13;99485.47;;;11.39;100.00
24230;BME280;12362;50.004;8.006;2022-11-04T00:43:04;99487.25;;;11.38;100.00
24230;BME280;12362;50.004;8.006;2022-11-04T00:45:29;99481.44;;;11.35;100.00
24230;BME280;12362;50.004;8.006;2022-11-04T00:47:55;99481.44;;;11.35;100.00
24230;BME280;12362;50.004;8.006;2022-11-04T00:50:20;99486.81;;;11.32;100.00
24230;BME280;12362;50.004;8.006;2022-11-04T00:52:46;99491.28;;;11.30;100.00
24230;BME280;12362;50.004;8.006;2022-11-04T00:55:11;99496.59;;;11.28;100.00
24230;BME280;12362;50.004;8.006;2022-11-04T00:57:37;99510.72;;;11.24;100.00
24230;BME280;12362;50.004;8.006;2022-11-04T01:00:03;99502.19;;;11.22;100.00
24230;BME280;12362;50.004;8.006;2022-11-04T01:02:28;99509.75;;;11.13;100.00
24230;BME280;12362;50.004;8.006;2022-11-04T01:04:54;99511.69;;;11.09;100.00
24230;BME280;12362;50.004;8.006;2022-11-04T01:07:19;99518.97;;;11.04;100.00
24230;BME280;12362;50.004;8.006;2022-11-04T01:09:45;99523.09;;;10.94;100.00
24230;BME280;12362;50.004;8.006;2022-11-04T01:12:10;99529.78;;;10.84;100.00
24230;BME280;12362;50.004;8.006;2022-11-04T01:14:36;99554.81;;;10.85;100.00
24230;BME280;12362;50.004;8.006;2022-11-04T01:17:01;99554.94;;;10.84;100.00
24230;BME280;12362;50.004;8.006;2022-11-04T01:19:27;99555.59;;;10.74;100.00
24230;BME280;12362;50.004;8.006;2022-11-04T01:21:52;99549.97;;;10.67;100.00
24230;BME280;12362;50.004;8.006;2022-11-04T01:24:18;99548.28;;;10.66;100.00
24230;BME280;12362;50.004;8.006;2022-11-04T01:26:44;99552.38;;;10.70;100.00
24230;BME280;12362;50.004;8.006;2022-11-04T01:29:09;99548.66;;;10.74;100.00
24230;BME280;12362;50.004;8.006;2022-11-04T01:31:35;99561.81;;;10.71;100.00
24230;BME280;12362;50.004;8.006;2022-11-04T01:34:00;99563.22;;;10.63;100.00
24230;BME280;12362;50.004;8.006;2022-11-04T01:36:26;99554.63;;;10.62;100.00
24230;BME280;12362;50.004;8.006;2022-11-04T01:38:54;99555.25;;;10.66;100.00
24230;BME280;12362;50.004;8.006;2022-11-04T01:41:24;99549.25;;;10.65;100.00
24230;BME280;12362;50.004;8.006;2022-11-04T01:43:58;99556.75;;;10.70;100.00
24230;BME280;12362;50.004;8.006;2022-11-04T01:46:28;99559.81;;;10.62;100.00
24230;BME280;12362;50.004;8.006;2022-11-04T01:49:03;99558.50;;;10.55;100.00
24230;BME280;12362;50.004;8.006;2022-11-04T01:51:34;99551.84;;;10.51;100.00
24230;BME280;12362;50.004;8.006;2022-11-04T01:54:01;99549.56;;;10.47;100.00
24230;BME280;12362;50.004;8.006;2022-11-04T01:56:28;99542.31;;;10.38;100.00
24230;BME280;12362;50.004;8.006;2022-11-04T01:58:57;99544.19;;;10.36;100.00
24230;BME280;12362;50.004;8.006;2022-11-04T02:01:26;99538.44;;;10.31;100.00
24230;BME280;12362;50.004;8.006;2022-11-04T02:03:55;99542.69;;;10.18;100.00
24230;BME280;12362;50.004;8.006;2022-11-04T02:06:44;99550.66;;;10.01;100.00
24230;BME280;12362;50.004;8.006;2022-11-04T02:09:10;99550.34;;;9.92;100.00
24230;BME280;12362;50.004;8.006;2022-11-04T02:11:37;99555.63;;;9.76;100.00
24230;BME280;12362;50.004;8.006;2022-11-04T02:14:21;99553.03;;;9.76;100.00
24230;BME280;12362;50.004;8.006;2022-11-04T02:16:47;99558.28;;;9.75;100.00
24230;BME280;12362;50.004;8.006;2022-11-04T02:19:28;99558.56;;;9.70;100.00
24230;BME280;12362;50.004;8.006;2022-11-04T02:34:03;99571.81;;;9.21;100.00
24230;BME280;12362;50.004;8.006;2022-11-04T02:36:45;99575.00;;;9.10;100.00
24230;BME280;12362;50.004;8.006;2022-11-04T02:39:49;99581.03;;;8.96;100.00
24230;BME280;12362;50.004;8.006;2022-11-04T02:45:46;99597.16;;;8.85;100.00
24230;BME280;12362;50.004;8.006;2022-11-04T02:48:35;99603.31;;;8.83;100.00
24230;BME280;12362;50.004;8.006;2022-11-04T02:51:18;99604.69;;;8.90;100.00
24230;BME280;12362;50.004;8.006;2022-11-04T02:56:15;99609.00;;;8.74;100.00
24230;BME280;12362;50.004;8.006;2022-11-04T02:58:49;99609.00;;;8.74;100.00
24230;BME280;12362;50.004;8.006;2022-11-04T03:01:18;99611.09;;;8.67;100.00
24230;BME280;12362;50.004;8.006;2022-11-04T03:03:48;99614.25;;;8.57;100.00
24230;BME280;12362;50.004;8.006;2022-11-04T03:06:16;99606.31;;;8.60;100.00
24230;BME280;12362;50.004;8.006;2022-11-04T03:08:50;99606.56;;;8.55;100.00
24230;BME280;12362;50.004;8.006;2022-11-04T03:11:20;99618.91;;;8.50;100.00
24230;BME280;12362;50.004;8.006;2022-11-04T03:16:19;99603.97;;;8.55;100.00
24230;BME280;12362;50.004;8.006;2022-11-04T03:19:08;99607.53;;;8.37;100.00
24230;BME280;12362;50.004;8.006;2022-11-04T03:21:43;99609.78;;;8.11;100.00
24230;BME280;12362;50.004;8.006;2022-11-04T03:24:11;99607.75;;;8.01;100.00
24230;BME280;12362;50.004;8.006;2022-11-04T03:26:48;99609.31;;;8.03;100.00
24230;BME280;12362;50.004;8.006;2022-11-04T03:29:51;99621.66;;;7.98;100.00
24230;BME280;12362;50.004;8.006;2022-11-04T03:34:54;99642.81;;;8.23;100.00
24230;BME280;12362;50.004;8.006;2022-11-04T03:37:20;99636.59;;;8.08;100.00
24230;BME280;12362;50.004;8.006;2022-11-04T03:39:45;99650.47;;;7.91;100.00
24230;BME280;12362;50.004;8.006;2022-11-04T03:42:18;99659.13;;;7.90;100.00
24230;BME280;12362;50.004;8.006;2022-11-04T03:44:52;99652.44;;;7.86;100.00
24230;BME280;12362;50.004;8.006;2022-11-04T03:47:20;99649.38;;;7.95;100.00
24230;BME280;12362;50.004;8.006;2022-11-04T03:49:48;99639.03;;;8.11;100.00
24230;BME280;12362;50.004;8.006;2022-11-04T03:52:14;99654.13;;;8.20;100.00
24230;BME280;12362;50.004;8.006;2022-11-04T03:54:41;99643.53;;;8.25;100.00
24230;BME280;12362;50.004;8.006;2022-11-04T03:57:22;99643.81;;;8.36;100.00
24230;BME280;12362;50.004;8.006;2022-11-04T04:02:48;99658.56;;;8.66;100.00
24230;BME280;12362;50.004;8.006;2022-11-04T04:10:41;99658.78;;;8.94;100.00
24230;BME280;12362;50.004;8.006;2022-11-04T04:16:19;99664.47;;;9.01;100.00
24230;BME280;12362;50.004;8.006;2022-11-04T04:18:53;99657.03;;;8.95;100.00
24230;BME280;12362;50.004;8.006;2022-11-04T04:21:30;99650.25;;;8.92;100.00
24230;BME280;12362;50.004;8.006;2022-11-04T04:23:58;99639.41;;;8.86;100.00
24230;BME280;12362;50.004;8.006;2022-11-04T04:26:47;99631.97;;;8.80;100.00
24230;BME280;12362;50.004;8.006;2022-11-04T04:29:33;99632.22;;;8.75;100.00
24230;BME280;12362;50.004;8.006;2022-11-04T04:32:00;99638.78;;;8.65;100.00
24230;BME280;12362;50.004;8.006;2022-11-04T04:34:28;99635.69;;;8.59;100.00
24230;BME280;12362;50.004;8.006;2022-11-04T04:37:08;99633.34;;;8.54;100.00
24230;BME280;12362;50.004;8.006;2022-11-04T04:39:56;99632.63;;;8.52;100.00
24230;BME280;12362;50.004;8.006;2022-11-04T04:43:01;99630.44;;;8.45;100.00
24230;BME280;12362;50.004;8.006;2022-11-04T04:45:49;99634.50;;;8.49;100.00
24230;BME280;12362;50.004;8.006;2022-11-04T04:48:16;99636.13;;;8.51;100.00
24230;BME280;12362;50.004;8.006;2022-11-04T04:50:47;99630.94;;;8.51;100.00
24230;BME280;12362;50.004;8.006;2022-11-04T04:53:14;99631.84;;;8.50;100.00
24230;BME280;12362;50.004;8.006;2022-11-04T04:55:39;99624.25;;;8.47;100.00
24230;BME280;12362;50.004;8.006;2022-11-04T04:58:04;99622.19;;;8.54;100.00
24230;BME280;12362;50.004;8.006;2022-11-04T05:00:30;99623.00;;;8.54;100.00
24230;BME280;12362;50.004;8.006;2022-11-04T05:02:56;99624.38;;;8.61;100.00
24230;BME280;12362;50.004;8.006;2022-11-04T05:05:22;99622.19;;;8.54;100.00
24230;BME280;12362;50.004;8.006;2022-11-04T05:07:47;99618.53;;;8.58;100.00
24230;BME280;12362;50.004;8.006;2022-11-04T05:10:14;99612.41;;;8.59;100.00
24230;BME280;12362;50.004;8.006;2022-11-04T05:12:40;99617.56;;;8.59;100.00
24230;BME280;12362;50.004;8.006;2022-11-04T05:15:26;99613.41;;;8.56;100.00
24230;BME280;12362;50.004;8.006;2022-11-04T05:17:57;99617.00;;;8.54;100.00
24230;BME280;12362;50.004;8.006;2022-11-04T05:20:22;99619.50;;;8.55;100.00
24230;BME280;12362;50.004;8.006;2022-11-04T05:22:47;99630.59;;;8.57;100.00
24230;BME280;12362;50.004;8.006;2022-11-04T05:25:13;99635.03;;;8.55;100.00
24230;BME280;12362;50.004;8.006;2022-11-04T05:27:38;99628.78;;;8.59;100.00
24230;BME280;12362;50.004;8.006;2022-11-04T05:30:05;99634.72;;;8.61;100.00
24230;BME280;12362;50.004;8.006;2022-11-04T05:32:30;99643.38;;;8.60;100.00
24230;BME280;12362;50.004;8.006;2022-11-04T05:34:56;99646.88;;;8.59;100.00
24230;BME280;12362;50.004;8.006;2022-11-04T05:37:22;99646.13;;;8.57;100.00
24230;BME280;12362;50.004;8.006;2022-11-04T05:39:47;99641.19;;;8.53;100.00
24230;BME280;12362;50.004;8.006;2022-11-04T05:42:13;99644.19;;;8.45;100.00
24230;BME280;12362;50.004;8.006;2022-11-04T05:44:39;99634.63;;;8.30;100.00
24230;BME280;12362;50.004;8.006;2022-11-04T05:47:07;99635.44;;;8.15;100.00
24230;BME280;12362;50.004;8.006;2022-11-04T05:49:32;99647.44;;;8.16;100.00
24230;BME280;12362;50.004;8.006;2022-11-04T05:51:58;99645.78;;;8.15;100.00
24230;BME280;12362;50.004;8.006;2022-11-04T05:54:24;99643.84;;;8.02;100.00
24230;BME280;12362;50.004;8.006;2022-11-04T05:56:50;99649.84;;;8.03;100.00
24230;BME280;12362;50.004;8.006;2022-11-04T05:59:16;99639.44;;;8.04;100.00
24230;BME280;12362;50.004;8.006;2022-11-04T06:01:42;99632.72;;;8.00;100.00
24230;BME280;12362;50.004;8.006;2022-11-04T06:04:12;99636.69;;;7.90;100.00
24230;BME280;12362;50.004;8.006;2022-11-04T06:06:38;99633.00;;;7.79;100.00
24230;BME280;12362;50.004;8.006;2022-11-04T06:09:04;99629.63;;;7.60;100.00
24230;BME280;12362;50.004;8.006;2022-11-04T06:11:30;99629.31;;;7.49;100.00
24230;BME280;12362;50.004;8.006;2022-11-04T06:14:05;99627.00;;;7.61;100.00
24230;BME280;12362;50.004;8.006;2022-11-04T06:16:30;99624.09;;;7.67;100.00
24230;BME280;12362;50.004;8.006;2022-11-04T06:18:56;99632.69;;;7.68;100.00
24230;BME280;12362;50.004;8.006;2022-11-04T06:21:25;99628.25;;;7.70;100.00
24230;BME280;12362;50.004;8.006;2022-11-04T06:23:55;99631.31;;;7.78;100.00
24230;BME280;12362;50.004;8.006;2022-11-04T06:26:22;99635.03;;;7.72;100.00
24230;BME280;12362;50.004;8.006;2022-11-04T06:28:48;99634.38;;;7.69;100.00
24230;BME280;12362;50.004;8.006;2022-11-04T06:31:15;99644.91;;;7.64;100.00
24230;BME280;12362;50.004;8.006;2022-11-04T06:33:48;99653.25;;;7.52;100.00
24230;BME280;12362;50.004;8.006;2022-11-04T06:36:15;99659.63;;;7.45;100.00
24230;BME280;12362;50.004;8.006;2022-11-04T06:38:41;99660.06;;;7.36;100.00
24230;BME280;12362;50.004;8.006;2022-11-04T06:41:14;99663.47;;;7.37;100.00
24230;BME280;12362;50.004;8.006;2022-11-04T06:43:43;99670.81;;;7.46;100.00
24230;BME280;12362;50.004;8.006;2022-11-04T06:46:35;99660.72;;;7.58;100.00
24230;BME280;12362;50.004;8.006;2022-11-04T06:52:11;99666.41;;;7.65;100.00
24230;BME280;12362;50.004;8.006;2022-11-04T06:54:36;99664.91;;;7.78;100.00
24230;BME280;12362;50.004;8.006;2022-11-04T06:57:02;99670.16;;;7.93;100.00
24230;BME280;12362;50.004;8.006;2022-11-04T06:59:29;99668.63;;;8.06;100.00
24230;BME280;12362;50.004;8.006;2022-11-04T07:01:55;99673.22;;;8.18;100.00
24230;BME280;12362;50.004;8.006;2022-11-04T07:04:20;99671.75;;;8.29;100.00
24230;BME280;12362;50.004;8.006;2022-11-04T07:06:49;99671.44;;;8.35;100.00
24230;BME280;12362;50.004;8.006;2022-11-04T07:09:18;99672.63;;;8.45;100.00
24230;BME280;12362;50.004;8.006;2022-11-04T07:11:44;99677.31;;;8.54;100.00
24230;BME280;12362;50.004;8.006;2022-11-04T07:14:36;99677.69;;;8.64;100.00
24230;BME280;12362;50.004;8.006;2022-11-04T07:17:02;99684.19;;;8.71;100.00
24230;BME280;12362;50.004;8.006;2022-11-04T07:19:28;99695.31;;;8.73;100.00
24230;BME280;12362;50.004;8.006;2022-11-04T07:21:54;99699.53;;;8.75;100.00
24230;BME280;12362;50.004;8.006;2022-11-04T07:24:19;99708.72;;;8.81;100.00
24230;BME280;12362;50.004;8.006;2022-11-04T07:26:45;99715.38;;;8.85;100.00
24230;BME280;12362;50.004;8.006;2022-11-04T07:29:21;99728.00;;;8.91;100.00
24230;BME280;12362;50.004;8.006;2022-11-04T07:31:57;99714.72;;;8.97;100.00
24230;BME280;12362;50.004;8.006;2022-11-04T07:34:25;99719.66;;;9.01;100.00
24230;BME280;12362;50.004;8.006;2022-11-04T07:43:57;99712.19;;;9.27;100.00
24230;BME280;12362;50.004;8.006;2022-11-04T07:49:47;99708.50;;;9.47;100.00
24230;BME280;12362;50.004;8.006;2022-11-04T07:52:14;99718.53;;;9.53;100.00
24230;BME280;12362;50.004;8.006;2022-11-04T07:54:40;99711.41;;;9.56;100.00
24230;BME280;12362;50.004;8.006;2022-11-04T07:57:05;99715.09;;;9.68;100.00
24230;BME280;12362;50.004;8.006;2022-11-04T07:59:31;99714.31;;;9.81;100.00
24230;BME280;12362;50.004;8.006;2022-11-04T08:01:58;99727.00;;;9.86;100.00
24230;BME280;12362;50.004;8.006;2022-11-04T08:04:24;99719.72;;;9.92;100.00
24230;BME280;12362;50.004;8.006;2022-11-04T08:06:52;99710.50;;;10.02;100.00
24230;BME280;12362;50.004;8.006;2022-11-04T08:09:21;99702.13;;;10.12;100.00
24230;BME280;12362;50.004;8.006;2022-11-04T08:11:47;99697.91;;;10.25;100.00
24230;BME280;12362;50.004;8.006;2022-11-04T08:16:54;99703.66;;;10.44;100.00
24230;BME280;12362;50.004;8.006;2022-11-04T08:19:19;99700.00;;;10.62;100.00
24230;BME280;12362;50.004;8.006;2022-11-04T08:21:45;99697.47;;;10.75;100.00
24230;BME280;12362;50.004;8.006;2022-11-04T08:24:10;99700.94;;;10.75;100.00
24230;BME280;12362;50.004;8.006;2022-11-04T08:26:36;99695.09;;;10.72;100.00
24230;BME280;12362;50.004;8.006;2022-11-04T08:29:06;99688.13;;;10.72;100.00
24230;BME280;12362;50.004;8.006;2022-11-04T08:31:35;99693.22;;;10.74;100.00
24230;BME280;12362;50.004;8.006;2022-11-04T08:34:04;99701.56;;;10.79;100.00
24230;BME280;12362;50.004;8.006;2022-11-04T08:36:34;99698.78;;;10.82;100.00
24230;BME280;12362;50.004;8.006;2022-11-04T08:39:05;99695.63;;;10.90;100.00
24230;BME280;12362;50.004;8.006;2022-11-04T08:41:32;99699.16;;;11.03;100.00
24230;BME280;12362;50.004;8.006;2022-11-04T08:43:59;99701.06;;;11.14;100.00
24230;BME280;12362;50.004;8.006;2022-11-04T08:46:27;99705.63;;;11.10;100.00
24230;BME280;12362;50.004;8.006;2022-11-04T08:48:53;99702.72;;;11.15;100.00
24230;BME280;12362;50.004;8.006;2022-11-04T08:51:22;99693.56;;;11.09;100.00
24230;BME280;12362;50.004;8.006;2022-11-04T08:53:48;99692.16;;;11.18;100.00
24230;BME280;12362;50.004;8.006;2022-11-04T08:56:22;99698.56;;;11.26;100.00
24230;BME280;12362;50.004;8.006;2022-11-04T08:58:48;99699.59;;;11.24;100.00
24230;BME280;12362;50.004;8.006;2022-11-04T09:01:14;99698.56;;;11.26;100.00
24230;BME280;12362;50.004;8.006;2022-11-04T09:03:41;99706.00;;;11.04;100.00
24230;BME280;12362;50.004;8.006;2022-11-04T09:06:09;99694.41;;;11.10;100.00
24230;BME280;12362;50.004;8.006;2022-11-04T09:08:36;99697.34;;;11.18;100.00
24230;BME280;12362;50.004;8.006;2022-11-04T09:11:06;99695.31;;;11.23;100.00
24230;BME280;12362;50.004;8.006;2022-11-04T09:13:32;99686.91;;;11.46;100.00
24230;BME280;12362;50.004;8.006;2022-11-04T09:15:58;99688.47;;;11.48;100.00
24230;BME280;12362;50.004;8.006;2022-11-04T09:18:24;99689.75;;;11.55;100.00
24230;BME280;12362;50.004;8.006;2022-11-04T09:20:49;99692.72;;;11.63;100.00
24230;BME280;12362;50.004;8.006;2022-11-04T09:23:15;99697.78;;;11.78;100.00
24230;BME280;12362;50.004;8.006;2022-11-04T09:25:40;99699.94;;;11.72;100.00
24230;BME280;12362;50.004;8.006;2022-11-04T09:28:06;99701.53;;;11.61;100.00
24230;BME280;12362;50.004;8.006;2022-11-04T09:30:32;99698.41;;;11.56;100.00
24230;BME280;12362;50.004;8.006;2022-11-04T09:32:57;99698.31;;;11.43;100.00
24230;BME280;12362;50.004;8.006;2022-11-04T09:35:23;99705.75;;;11.35;100.00
24230;BME280;12362;50.004;8.006;2022-11-04T09:37:51;99707.63;;;11.33;100.00
24230;BME280;12362;50.004;8.006;2022-11-04T09:40:19;99704.56;;;11.27;100.00
24230;BME280;12362;50.004;8.006;2022-11-04T09:45:15;99710.16;;;11.35;100.00
24230;BME280;12362;50.004;8.006;2022-11-04T09:47:48;99710.31;;;11.46;100.00
24230;BME280;12362;50.004;8.006;2022-11-04T09:50:28;99707.19;;;11.67;100.00
24230;BME280;12362;50.004;8.006;2022-11-04T09:53:13;99712.34;;;11.81;100.00
24230;BME280;12362;50.004;8.006;2022-11-04T09:56:07;99714.00;;;11.82;100.00
24230;BME280;12362;50.004;8.006;2022-11-04T09:58:37;99713.56;;;11.76;100.00
24230;BME280;12362;50.004;8.006;2022-11-04T10:09:25;99740.19;;;11.53;100.00
24230;BME280;12362;50.004;8.006;2022-11-04T10:15:08;99738.06;;;11.59;100.00
24230;BME280;12362;50.004;8.006;2022-11-04T10:23:30;99723.53;;;11.69;100.00
24230;BME280;12362;50.004;8.006;2022-11-04T10:26:12;99724.16;;;11.73;100.00
24230;BME280;12362;50.004;8.006;2022-11-04T10:28:42;99718.53;;;11.92;100.00
24230;BME280;12362;50.004;8.006;2022-11-04T10:31:15;99717.66;;;12.18;100.00
24230;BME280;12362;50.004;8.006;2022-11-04T10:33:54;99725.16;;;12.23;100.00
24230;BME280;12362;50.004;8.006;2022-11-04T10:36:24;99733.28;;;12.18;100.00
24230;BME280;12362;50.004;8.006;2022-11-04T10:38:56;99731.81;;;12.14;100.00
24230;BME280;12362;50.004;8.006;2022-11-04T10:43:50;99720.47;;;12.15;100.00
24230;BME280;12362;50.004;8.006;2022-11-04T10:49:38;99721.00;;;12.33;100.00
24230;BME280;12362;50.004;8.006;2022-11-04T10:52:10;99719.25;;;12.46;100.00
24230;BME280;12362;50.004;8.006;2022-11-04T10:54:43;99710.19;;;12.64;100.00
24230;BME280;12362;50.004;8.006;2022-11-04T10:57:18;99709.91;;;12.93;100.00
24230;BME280;12362;50.004;8.006;2022-11-04T10:59:56;99697.47;;;13.09;100.00
24230;BME280;12362;50.004;8.006;2022-11-04T11:07:44;99696.50;;;13.22;100.00
24230;BME280;12362;50.004;8.006;2022-11-04T11:10:27;99691.94;;;13.26;100.00
24230;BME280;12362;50.004;8.006;2022-11-04T11:12:55;99689.34;;;13.49;100.00
24230;BME280;12362;50.004;8.006;2022-11-04T11:15:33;99686.91;;;13.59;100.00
24230;BME280;12362;50.004;8.006;2022-11-04T11:20:38;99673.09;;;14.03;100.00
24230;BME280;12362;50.004;8.006;2022-11-04T11:23:31;99674.97;;;14.01;100.00
24230;BME280;12362;50.004;8.006;2022-11-04T11:25:53;99672.25;;;14.26;100.00
24230;BME280;12362;50.004;8.006;2022-11-04T11:28:23;99666.25;;;14.48;100.00
24230;BME280;12362;50.004;8.006;2022-11-04T11:30:56;99666.38;;;14.90;100.00
24230;BME280;12362;50.004;8.006;2022-11-04T11:33:31;99660.06;;;14.92;100.00
24230;BME280;12362;50.004;8.006;2022-11-04T11:36:03;99665.03;;;14.52;100.00
24230;BME280;12362;50.004;8.006;2022-11-04T11:38:37;99672.97;;;14.28;100.00
24230;BME280;12362;50.004;8.006;2022-11-04T11:41:13;99668.53;;;14.18;100.00
24230;BME280;12362;50.004;8.006;2022-11-04T11:43:50;99669.75;;;14.25;100.00
24230;BME280;12362;50.004;8.006;2022-11-04T11:46:27;99659.66;;;13.97;100.00
24230;BME280;12362;50.004;8.006;2022-11-04T11:49:00;99657.78;;;13.75;100.00
24230;BME280;12362;50.004;8.006;2022-11-04T11:51:30;99654.53;;;13.84;100.00
24230;BME280;12362;50.004;8.006;2022-11-04T11:57:16;99660.97;;;13.68;100.00
24230;BME280;12362;50.004;8.006;2022-11-04T11:59:53;99657.28;;;13.94;100.00
24230;BME280;12362;50.004;8.006;2022-11-04T12:02:34;99659.78;;;13.95;100.00
24230;BME280;12362;50.004;8.006;2022-11-04T12:05:11;99657.91;;;13.97;100.00
24230;BME280;12362;50.004;8.006;2022-11-04T12:10:57;99661.72;;;13.81;100.00
24230;BME280;12362;50.004;8.006;2022-11-04T12:13:31;99667.75;;;13.70;100.00
24230;BME280;12362;50.004;8.006;2022-11-04T12:22:00;99673.31;;;13.66;100.00
24230;BME280;12362;50.004;8.006;2022-11-04T12:24:37;99672.25;;;13.68;100.00
24230;BME280;12362;50.004;8.006;2022-11-04T12:27:10;99664.41;;;13.68;100.00
24230;BME280;12362;50.004;8.006;2022-11-04T12:30:12;99663.94;;;13.98;100.00
24230;BME280;12362;50.004;8.006;2022-11-04T12:32:51;99655.38;;;14.19;100.00
24230;BME280;12362;50.004;8.006;2022-11-04T12:43:52;99657.81;;;14.44;100.00
24230;BME280;12362;50.004;8.006;2022-11-04T12:54:28;99656.38;;;14.40;100.00
24230;BME280;12362;50.004;8.006;2022-11-04T12:57:52;99650.44;;;14.82;100.00
24230;BME280;12362;50.004;8.006;2022-11-04T13:00:03;99646.78;;;14.73;100.00
24230;BME280;12362;50.004;8.006;2022-11-04T13:05:33;99638.53;;;15.33;100.00
24230;BME280;12362;50.004;8.006;2022-11-04T13:10:44;99620.53;;;16.02;100.00
24230;BME280;12362;50.004;8.006;2022-11-04T13:13:14;99620.38;;;15.83;100.00
24230;BME280;12362;50.004;8.006;2022-11-04T13:15:46;99612.59;;;15.92;100.00
24230;BME280;12362;50.004;8.006;2022-11-04T13:18:18;99629.25;;;15.71;100.00
24230;BME280;12362;50.004;8.006;2022-11-04T13:20:51;99631.47;;;15.55;100.00
24230;BME280;12362;50.004;8.006;2022-11-04T13:23:28;99633.09;;;15.14;100.00
24230;BME280;12362;50.004;8.006;2022-11-04T13:25:55;99640.13;;;14.80;100.00
24230;BME280;12362;50.004;8.006;2022-11-04T13:28:24;99642.34;;;13.96;100.00
24230;BME280;12362;50.004;8.006;2022-11-04T13:34:00;99653.22;;;13.79;100.00
24230;BME280;12362;50.004;8.006;2022-11-04T13:39:30;99660.66;;;14.41;100.00
24230;BME280;12362;50.004;8.006;2022-11-04T13:42:51;99669.34;;;15.18;100.00
24230;BME280;12362;50.004;8.006;2022-11-04T13:44:57;99664.88;;;15.62;100.00
24230;BME280;12362;50.004;8.006;2022-11-04T13:47:35;99658.88;;;16.03;100.00
24230;BME280;12362;50.004;8.006;2022-11-04T13:50:02;99664.00;;;16.25;100.00
24230;BME280;12362;50.004;8.006;2022-11-04T13:52:32;99669.25;;;16.45;100.00
24230;BME280;12362;50.004;8.006;2022-11-04T13:55:05;99665.72;;;16.55;100.00
24230;BME280;12362;50.004;8.006;2022-11-04T13:57:59;99681.69;;;15.80;100.00
24230;BME280;12362;50.004;8.006;2022-11-04T14:00:28;99680.44;;;15.64;100.00
24230;BME280;12362;50.004;8.006;2022-11-04T14:02:59;99687.13;;;15.24;100.00
24230;BME280;12362;50.004;8.006;2022-11-04T14:16:10;99708.44;;;14.20;100.00
24230;BME280;12362;50.004;8.006;2022-11-04T14:18:49;99711.88;;;14.20;100.00
24230;BME280;12362;50.004;8.006;2022-11-04T14:21:26;99711.97;;;14.19;100.00
24230;BME280;12362;50.004;8.006;2022-11-04T14:23:55;99715.16;;;13.88;100.00
24230;BME280;12362;50.004;8.006;2022-11-04T14:26:25;99727.69;;;13.83;100.00
24230;BME280;12362;50.004;8.006;2022-11-04T14:29:05;99727.03;;;13.92;100.00
24230;BME280;12362;50.004;8.006;2022-11-04T14:31:37;99720.31;;;14.24;100.00
24230;BME280;12362;50.004;8.006;2022-11-04T14:34:04;99724.16;;;14.07;100.00
24230;BME280;12362;50.004;8.006;2022-11-04T14:36:31;99724.59;;;14.25;100.00
24230;BME280;12362;50.004;8.006;2022-11-04T14:39:05;99714.75;;;15.17;100.00
24230;BME280;12362;50.004;8.006;2022-11-04T14:41:50;99717.28;;;15.72;100.00
24230;BME280;12362;50.004;8.006;2022-11-04T14:47:23;99715.94;;;15.88;100.00
24230;BME280;12362;50.004;8.006;2022-11-04T14:49:59;99728.84;;;15.69;100.00
24230;BME280;12362;50.004;8.006;2022-11-04T14:55:02;99735.09;;;15.25;100.00
24230;BME280;12362;50.004;8.006;2022-11-04T14:57:35;99750.06;;;15.12;100.00
24230;BME280;12362;50.004;8.006;2022-11-04T15:05:31;99759.94;;;14.52;100.00
24230;BME280;12362;50.004;8.006;2022-11-04T15:08:02;99766.50;;;14.34;100.00
24230;BME280;12362;50.004;8.006;2022-11-04T15:10:48;99763.78;;;14.25;100.00
24230;BME280;12362;50.004;8.006;2022-11-04T15:13:18;99773.75;;;14.07;100.00
24230;BME280;12362;50.004;8.006;2022-11-04T15:15:45;99775.75;;;13.68;100.00
24230;BME280;12362;50.004;8.006;2022-11-04T15:18:18;99783.31;;;13.60;100.00
24230;BME280;12362;50.004;8.006;2022-11-04T15:20:52;99784.16;;;13.61;100.00
24230;BME280;12362;50.004;8.006;2022-11-04T15:23:31;99775.75;;;13.68;100.00
24230;BME280;12362;50.004;8.006;2022-11-04T15:25:58;99781.22;;;13.65;100.00
24230;BME280;12362;50.004;8.006;2022-11-04T15:28:27;99782.75;;;13.67;100.00
24230;BME280;12362;50.004;8.006;2022-11-04T15:31:04;99780.47;;;13.63;100.00
24230;BME280;12362;50.004;8.006;2022-11-04T15:33:37;99784.44;;;13.56;100.00
24230;BME280;12362;50.004;8.006;2022-11-04T15:36:06;99789.72;;;13.44;100.00
24230;BME280;12362;50.004;8.006;2022-11-04T15:38:32;99795.03;;;13.42;100.00
24230;BME280;12362;50.004;8.006;2022-11-04T15:40:59;99796.19;;;13.38;100.00
24230;BME280;12362;50.004;8.006;2022-11-04T15:46:16;99806.81;;;13.35;100.00